Terminal Aerodrome Forecast
Issued by NWS Jackson, KY

Home | Current Version | Previous Version | Text Only | Print | Product List | Glossary On
Versions: 1 2 3 4 5 6 7 8 9 10 11 12 13 14 15 16 17 18 19 20 21 22 23 24 25 26 27 28 29
000
FTUS43 KJKL 011551 AAB
TAFJKL
TAF AMD
KJKL 011551Z 0116/0212 VRB05KT P6SM BKN022
     FM011700 29005KT P6SM BKN040
     FM012100 VRB04KT P6SM VCSH BKN035
     FM020200 VRB03KT 3SM -SHRA BR OVC020
     FM020900 VRB03KT 1SM SHRA BR OVC015=

USA.gov is the U.S. government's official web portal to all federal, state and local government web resources and services.